Terminal Aerodrome Forecast
Issued by NWS

Home | Current Version | Previous Version | Text Only | Print | Product List | Glossary On
Versions: 1 2 3 4 5 6 7 8 9 10 11 12 13 14 15 16 17 18 19 20 21 22
000
FTUS41 KCAR 281231 AAA
TAFHUL
TAF AMD
KHUL 281231Z 2813/2912 36016G26KT 2SM -SN BLSN OVC020
     FM281400 35012G20KT 6SM BLSN VCSH OVC030
     FM281900 33010G18KT P6SM OVC035
     FM290000 32008KT P6SM SCT040
     FM290300 33005KT P6SM SKC=

USA.gov is the U.S. government's official web portal to all federal, state and local government web resources and services.